createdAt,value
2019-05-30T00:00:16.951Z,9.25
2019-05-30T00:01:14.153Z,10.25
2019-05-30T00:02:17.410Z,11.50
2019-05-30T00:03:20.809Z,10.00
2019-05-30T00:04:25.378Z,9.75
2019-05-30T00:05:32.850Z,11.50
2019-05-30T00:06:35.556Z,9.75
2019-05-30T00:07:41.923Z,11.00
2019-05-30T00:08:44.559Z,9.50
2019-05-30T00:09:47.783Z,8.75
2019-05-30T00:10:50.594Z,7.75
2019-05-30T00:11:54.666Z,10.00
2019-05-30T00:13:01.079Z,10.00
2019-05-30T00:14:04.967Z,10.00
2019-05-30T00:15:08.323Z,10.00
2019-05-30T00:16:11.586Z,7.50
2019-05-30T00:17:21.331Z,11.25
2019-05-30T00:18:26.995Z,7.00
2019-05-30T00:19:33.682Z,9.50
2019-05-30T00:20:36.800Z,9.00
2019-05-30T00:21:39.375Z,8.50
2019-05-30T00:22:43.047Z,9.00
2019-05-30T00:23:45.796Z,9.75
2019-05-30T00:24:49.305Z,7.00
2019-05-30T00:25:55.640Z,9.50
2019-05-30T00:27:04.830Z,9.75
2019-05-30T00:28:09.836Z,7.00
2019-05-30T00:29:13.246Z,9.25
2019-05-30T00:30:24.389Z,8.00
2019-05-30T00:31:21.008Z,10.00
2019-05-30T00:32:23.650Z,7.00
2019-05-30T00:33:27.031Z,6.50
2019-05-30T00:34:29.657Z,7.00
2019-05-30T00:35:34.293Z,9.75
2019-05-30T00:36:38.261Z,7.50
2019-05-30T00:37:41.496Z,7.00
2019-05-30T00:38:47.316Z,7.50
2019-05-30T00:39:50.529Z,9.25
2019-05-30T00:40:53.526Z,8.00
2019-05-30T00:41:57.872Z,8.50
2019-05-30T00:43:02.098Z,9.50
2019-05-30T00:44:06.279Z,9.00
2019-05-30T00:45:20.937Z,9.00
2019-05-30T00:46:17.459Z,9.75
2019-05-30T00:47:20.089Z,9.00
2019-05-30T00:48:26.785Z,9.00
2019-05-30T00:49:29.691Z,9.00
2019-05-30T00:50:32.990Z,9.50
2019-05-30T00:51:41.935Z,7.00
2019-05-30T00:52:42.262Z,9.00
2019-05-30T00:53:45.023Z,7.50
2019-05-30T00:54:48.518Z,8.00
2019-05-30T00:55:56.712Z,8.75
2019-05-30T00:57:00.677Z,9.00
2019-05-30T00:58:04.772Z,9.00
2019-05-30T00:59:08.183Z,7.00
2019-05-30T01:00:10.857Z,7.00
2019-05-30T01:01:14.211Z,9.00
2019-05-30T01:02:17.365Z,11.75
2019-05-30T01:03:22.849Z,10.00
2019-05-30T01:04:25.491Z,10.75
2019-05-30T01:05:29.279Z,10.25
2019-05-30T01:06:39.375Z,9.00
2019-05-30T01:07:43.178Z,12.00
2019-05-30T01:08:46.111Z,9.50
2019-05-30T01:09:49.475Z,9.75
2019-05-30T01:10:52.263Z,12.00
2019-05-30T01:11:55.466Z,9.00
2019-05-30T01:13:01.279Z,10.00
2019-05-30T01:14:05.412Z,8.50
2019-05-30T01:15:08.611Z,12.00
2019-05-30T01:16:11.919Z,9.00
2019-05-30T01:17:14.585Z,9.50
2019-05-30T01:18:18.404Z,10.00
2019-05-30T01:19:22.190Z,7.00
2019-05-30T01:20:25.584Z,11.25
2019-05-30T01:21:28.503Z,9.00
2019-05-30T01:22:31.919Z,12.00
2019-05-30T01:23:34.728Z,12.50
2019-05-30T01:24:44.252Z,10.00
2019-05-30T01:25:46.932Z,8.00
2019-05-30T01:26:50.138Z,9.00
2019-05-30T01:27:53.160Z,7.50
2019-05-30T01:28:59.343Z,9.75
2019-05-30T01:30:03.642Z,9.00
2019-05-30T01:31:10.188Z,10.75
2019-05-30T01:32:31.628Z,11.50
2019-05-30T01:33:35.079Z,10.00
2019-05-30T01:34:38.138Z,9.25
2019-05-30T01:35:41.586Z,10.75
2019-05-30T01:36:44.249Z,9.00
2019-05-30T01:37:51.847Z,9.00
2019-05-30T01:38:54.509Z,9.00
2019-05-30T01:40:04.237Z,12.25
2019-05-30T01:41:08.068Z,8.50
2019-05-30T01:42:12.037Z,10.00
2019-05-30T01:43:14.848Z,12.25
2019-05-30T01:44:19.047Z,11.25
2019-05-30T01:45:21.966Z,11.00
2019-05-30T01:46:25.672Z,9.75
2019-05-30T01:47:28.523Z,9.00
2019-05-30T01:48:31.947Z,10.75
2019-05-30T01:49:35.195Z,10.75
2019-05-30T01:50:38.688Z,10.00
2019-05-30T01:51:44.271Z,10.50
2019-05-30T01:52:47.695Z,12.00
2019-05-30T01:53:50.374Z,9.25
2019-05-30T01:54:53.802Z,11.25
2019-05-30T01:55:56.687Z,11.00
2019-05-30T01:57:00.502Z,9.50
2019-05-30T01:58:03.405Z,10.50
2019-05-30T01:59:07.503Z,12.00
2019-05-30T02:00:19.810Z,11.50
2019-05-30T02:01:24.184Z,10.00
2019-05-30T02:02:20.649Z,10.50
2019-05-30T02:03:23.901Z,9.00
2019-05-30T02:04:26.713Z,10.00
2019-05-30T02:05:30.383Z,9.50
2019-05-30T02:06:33.251Z,10.00
2019-05-30T02:07:36.501Z,8.50
2019-05-30T02:08:39.291Z,10.75
2019-05-30T02:09:42.709Z,13.50
2019-05-30T02:10:45.426Z,9.50
2019-05-30T02:11:49.252Z,11.25
2019-05-30T02:12:52.075Z,11.50
2019-05-30T02:13:55.457Z,10.50
2019-05-30T02:14:59.313Z,11.75
2019-05-30T02:16:03.751Z,9.00
2019-05-30T02:17:10.095Z,11.00
2019-05-30T02:18:13.843Z,11.00
2019-05-30T02:19:16.562Z,9.50
2019-05-30T02:20:19.846Z,9.00
2019-05-30T02:21:22.585Z,9.50
2019-05-30T02:22:26.101Z,11.25
2019-05-30T02:23:28.788Z,9.50
2019-05-30T02:24:34.670Z,10.50
2019-05-30T02:25:39.039Z,9.50
2019-05-30T02:26:42.295Z,8.00
2019-05-30T02:27:44.957Z,9.50
2019-05-30T02:28:48.335Z,11.50
2019-05-30T02:29:52.073Z,9.50
2019-05-30T02:30:55.582Z,9.00
2019-05-30T02:31:58.241Z,9.00
2019-05-30T02:33:02.951Z,8.25
2019-05-30T02:34:07.617Z,11.00
2019-05-30T02:35:12.891Z,10.50
2019-05-30T02:36:16.070Z,11.00
2019-05-30T02:37:19.748Z,10.00
2019-05-30T02:38:22.656Z,10.50
2019-05-30T02:39:26.035Z,11.00
2019-05-30T02:40:28.901Z,11.00
2019-05-30T02:41:32.310Z,11.00
2019-05-30T02:42:35.142Z,10.50
2019-05-30T02:43:38.847Z,11.75
2019-05-30T02:44:44.170Z,11.00
2019-05-30T02:45:49.908Z,9.00
2019-05-30T02:46:56.473Z,11.00
2019-05-30T02:48:01.250Z,11.00
2019-05-30T02:49:05.013Z,9.50
2019-05-30T02:50:11.566Z,11.75
2019-05-30T02:51:14.107Z,10.50
2019-05-30T02:52:17.480Z,10.50
2019-05-30T02:53:20.310Z,11.50
2019-05-30T02:54:24.182Z,10.00
2019-05-30T02:55:27.076Z,12.00
2019-05-30T02:56:30.621Z,9.00
2019-05-30T02:57:33.530Z,11.00
2019-05-30T02:58:37.028Z,11.25
2019-05-30T02:59:39.682Z,9.50
2019-05-30T03:00:43.071Z,11.00
2019-05-30T03:02:00.119Z,9.00
2019-05-30T03:02:51.882Z,11.25
2019-05-30T03:03:54.627Z,9.00
2019-05-30T03:04:58.618Z,12.00
2019-05-30T03:06:01.915Z,11.25
2019-05-30T03:07:07.066Z,11.25
2019-05-30T03:08:14.374Z,13.25
2019-05-30T03:09:19.134Z,17.00
2019-05-30T03:10:21.960Z,13.50
2019-05-30T03:11:25.461Z,13.75
2019-05-30T03:12:28.308Z,15.00
2019-05-30T03:13:32.186Z,16.25
2019-05-30T03:14:35.067Z,13.25
2019-05-30T03:15:38.873Z,15.00
2019-05-30T03:16:42.192Z,14.25
2019-05-30T03:17:45.614Z,14.25
2019-05-30T03:18:48.507Z,15.75
2019-05-30T03:19:53.402Z,14.00
2019-05-30T03:20:56.189Z,14.25
2019-05-30T03:22:03.421Z,12.00
2019-05-30T03:23:05.881Z,14.75
2019-05-30T03:24:11.692Z,14.25
2019-05-30T03:25:16.108Z,12.00
2019-05-30T03:26:18.910Z,12.00
2019-05-30T03:27:22.032Z,14.50
2019-05-30T03:28:25.757Z,12.75
2019-05-30T03:29:29.406Z,12.25
2019-05-30T03:30:33.506Z,12.75
2019-05-30T03:31:36.410Z,13.75
2019-05-30T03:33:44.756Z,14.00
2019-05-30T03:34:48.540Z,15.25
2019-05-30T03:35:51.324Z,15.50
2019-05-30T03:36:54.727Z,16.25
2019-05-30T03:37:57.571Z,12.00
2019-05-30T03:39:00.988Z,12.75
2019-05-30T03:40:03.917Z,13.50
2019-05-30T03:41:09.102Z,14.00
2019-05-30T03:42:13.243Z,13.50
2019-05-30T03:43:16.892Z,14.00
2019-05-30T03:44:19.717Z,14.50
2019-05-30T03:45:24.378Z,14.00
2019-05-30T03:46:27.702Z,14.00
2019-05-30T03:47:31.102Z,16.25
2019-05-30T03:48:35.877Z,13.25
2019-05-30T03:49:39.685Z,13.50
2019-05-30T03:50:42.547Z,12.00
2019-05-30T03:51:49.175Z,11.25
2019-05-30T03:52:57.403Z,12.25
2019-05-30T03:54:05.075Z,14.00
2019-05-30T03:55:09.981Z,12.50
2019-05-30T03:56:14.088Z,11.75
2019-05-30T03:57:17.638Z,14.00
2019-05-30T03:58:21.053Z,13.50
2019-05-30T03:59:26.958Z,14.00
2019-05-30T04:00:30.420Z,12.25
2019-05-30T04:01:33.224Z,14.00
2019-05-30T04:02:56.446Z,13.75
2019-05-30T04:03:43.627Z,14.00
2019-05-30T04:04:53.344Z,14.00
2019-05-30T04:05:56.193Z,14.00
2019-05-30T04:07:00.016Z,15.25
2019-05-30T04:08:03.936Z,14.00
2019-05-30T04:09:09.916Z,14.00
2019-05-30T04:10:13.520Z,13.75
2019-05-30T04:11:20.732Z,11.00
2019-05-30T04:12:23.631Z,13.25
2019-05-30T04:13:30.071Z,11.00
2019-05-30T04:14:34.150Z,12.00
2019-05-30T04:15:37.687Z,14.00
2019-05-30T04:16:40.606Z,15.00
2019-05-30T04:17:44.407Z,14.00
2019-05-30T04:18:47.236Z,14.00
2019-05-30T04:19:50.637Z,14.25
2019-05-30T04:20:53.914Z,14.00
2019-05-30T04:21:57.329Z,14.00
2019-05-30T04:23:00.200Z,12.50
2019-05-30T04:24:03.892Z,14.50
2019-05-30T04:25:08.486Z,14.00
2019-05-30T04:26:15.991Z,14.00
2019-05-30T04:27:21.281Z,16.50
2019-05-30T04:28:24.784Z,13.25
2019-05-30T04:29:27.622Z,19.25
2019-05-30T04:30:31.315Z,20.00
2019-05-30T04:31:34.197Z,21.50
2019-05-30T04:32:37.623Z,24.50
2019-05-30T04:33:40.464Z,26.00
2019-05-30T04:34:43.943Z,21.50
2019-05-30T04:35:46.741Z,15.75
2019-05-30T04:36:53.478Z,16.75
2019-05-30T04:37:55.030Z,14.25
2019-05-30T04:38:58.456Z,13.00
2019-05-30T04:40:01.273Z,14.00
2019-05-30T04:41:04.672Z,14.50
2019-05-30T04:42:09.259Z,16.75
2019-05-30T04:43:13.461Z,15.00
2019-05-30T04:44:17.713Z,14.25
2019-05-30T04:45:21.508Z,17.75
2019-05-30T04:46:24.337Z,14.00
2019-05-30T04:47:27.739Z,20.50
2019-05-30T04:48:32.841Z,19.00
2019-05-30T04:49:35.976Z,20.50
2019-05-30T04:50:39.221Z,19.00
2019-05-30T04:51:42.746Z,17.00
2019-05-30T04:52:45.532Z,18.75
2019-05-30T04:53:48.942Z,15.00
2019-05-30T04:54:53.217Z,17.00
2019-05-30T04:55:57.016Z,19.00
2019-05-30T04:56:59.921Z,17.00
2019-05-30T04:58:06.028Z,13.50
2019-05-30T04:59:08.851Z,14.75
2019-05-30T05:00:13.034Z,14.75
2019-05-30T05:01:17.700Z,13.75
2019-05-30T05:02:23.283Z,13.75
2019-05-30T05:03:44.229Z,14.00
2019-05-30T05:04:31.997Z,12.75
2019-05-30T05:05:35.193Z,16.50
2019-05-30T05:06:38.674Z,17.75
2019-05-30T05:07:41.936Z,17.00
2019-05-30T05:08:45.320Z,16.00
2019-05-30T05:09:48.129Z,14.00
2019-05-30T05:10:51.503Z,12.00
2019-05-30T05:11:54.390Z,12.00
2019-05-30T05:12:57.788Z,15.50
2019-05-30T05:14:01.030Z,11.25
2019-05-30T05:15:04.443Z,12.00
2019-05-30T05:16:21.749Z,12.75
2019-05-30T05:17:12.784Z,13.75
2019-05-30T05:18:16.948Z,12.00
2019-05-30T05:19:22.178Z,15.75
2019-05-30T05:20:25.221Z,14.50
2019-05-30T05:21:28.683Z,14.50
2019-05-30T05:22:31.892Z,15.00
2019-05-30T05:23:35.262Z,16.75
2019-05-30T05:24:38.075Z,14.50
2019-05-30T05:25:41.612Z,16.00
2019-05-30T05:26:44.798Z,15.50
2019-05-30T05:27:48.186Z,15.50
2019-05-30T05:28:51.027Z,19.00
2019-05-30T05:29:58.995Z,19.00
2019-05-30T05:43:43.476Z,16.50
2019-05-30T05:44:47.098Z,17.75
2019-05-30T05:45:49.920Z,18.50
2019-05-30T05:46:53.655Z,17.50
2019-05-30T05:47:56.507Z,17.50
2019-05-30T05:49:00.249Z,19.75
2019-05-30T05:50:03.521Z,17.00
2019-05-30T05:51:07.329Z,16.75
2019-05-30T05:52:12.147Z,15.75
2019-05-30T05:53:15.241Z,16.50
2019-05-30T05:54:18.874Z,17.25
2019-05-30T05:55:23.313Z,14.00
2019-05-30T05:56:26.155Z,13.25
2019-05-30T05:57:29.660Z,13.75
2019-05-30T05:58:32.492Z,14.00
2019-05-30T05:59:37.511Z,14.00
2019-05-30T06:00:40.306Z,15.50
2019-05-30T06:01:44.066Z,13.75
2019-05-30T06:02:46.904Z,14.75
2019-05-30T06:03:50.290Z,13.00
2019-05-30T06:04:53.210Z,16.00
2019-05-30T06:05:56.635Z,17.00
2019-05-30T06:06:59.454Z,14.00
2019-05-30T06:08:03.662Z,15.25
2019-05-30T06:09:06.481Z,13.25
2019-05-30T06:10:09.949Z,16.00
2019-05-30T06:11:13.307Z,14.00
2019-05-30T06:12:19.671Z,16.00
2019-05-30T06:13:22.929Z,13.00
2019-05-30T06:14:28.040Z,11.00
2019-05-30T06:15:31.042Z,12.50
2019-05-30T06:16:34.503Z,13.75
2019-05-30T06:17:37.183Z,9.75
2019-05-30T06:18:40.548Z,10.50
2019-05-30T06:19:46.827Z,13.00
2019-05-30T06:20:48.849Z,13.00
2019-05-30T06:21:54.361Z,11.75
2019-05-30T06:22:57.570Z,10.75
2019-05-30T06:24:03.136Z,13.00
2019-05-30T06:25:09.074Z,16.00
2019-05-30T06:26:11.899Z,12.75
2019-05-30T06:27:15.608Z,13.50
2019-05-30T06:28:18.391Z,11.00
2019-05-30T06:29:22.147Z,11.25
2019-05-30T06:30:26.391Z,10.00
2019-05-30T06:31:30.366Z,17.25
2019-05-30T06:32:33.293Z,18.25
2019-05-30T06:33:37.241Z,11.50
2019-05-30T06:34:40.304Z,13.25
2019-05-30T06:35:44.291Z,11.75
2019-05-30T06:36:47.100Z,11.00
2019-05-30T06:37:50.515Z,16.00
2019-05-30T06:38:53.335Z,13.00
2019-05-30T06:39:57.155Z,13.00
2019-05-30T06:40:59.936Z,12.00
2019-05-30T06:42:03.398Z,12.25
2019-05-30T06:43:06.295Z,13.00
2019-05-30T06:44:09.676Z,13.25
2019-05-30T06:45:12.570Z,15.25
2019-05-30T06:46:20.102Z,14.00
2019-05-30T06:47:24.297Z,13.00
2019-05-30T06:48:28.803Z,12.50
2019-05-30T06:49:31.679Z,13.50
2019-05-30T06:50:37.184Z,13.50
2019-05-30T06:51:40.300Z,14.75
2019-05-30T06:52:43.729Z,16.00
2019-05-30T06:53:46.519Z,12.00
2019-05-30T06:54:52.749Z,13.75
2019-05-30T06:55:55.631Z,15.75
2019-05-30T06:56:59.406Z,15.50
2019-05-30T06:58:02.643Z,13.00
2019-05-30T06:59:06.012Z,13.00
2019-05-30T07:00:08.972Z,13.50
2019-05-30T07:01:12.827Z,13.00
2019-05-30T07:02:15.698Z,13.00
2019-05-30T07:03:19.103Z,15.00
2019-05-30T07:04:26.193Z,17.00
2019-05-30T07:05:32.090Z,13.75
2019-05-30T07:06:35.045Z,13.75
2019-05-30T07:07:38.807Z,15.25
2019-05-30T07:08:41.766Z,17.00
2019-05-30T07:09:45.591Z,15.50
2019-05-30T07:10:49.251Z,13.50
2019-05-30T07:11:52.680Z,14.50
2019-05-30T07:12:55.475Z,13.50
2019-05-30T07:13:58.976Z,15.75
2019-05-30T07:15:01.794Z,13.50
2019-05-30T07:16:05.652Z,14.00
2019-05-30T07:17:08.800Z,15.75
2019-05-30T07:18:12.199Z,13.75
2019-05-30T07:19:15.066Z,13.00
2019-05-30T07:20:18.458Z,16.00
2019-05-30T07:21:21.355Z,15.00
2019-05-30T07:22:25.604Z,14.00
2019-05-30T07:23:29.976Z,13.75
2019-05-30T07:24:33.938Z,11.25
2019-05-30T07:25:36.854Z,12.75
2019-05-30T07:26:40.560Z,13.25
2019-05-30T07:27:45.167Z,12.75
2019-05-30T07:28:49.017Z,10.75
2019-05-30T07:29:53.159Z,13.75
2019-05-30T07:30:59.161Z,10.50
2019-05-30T07:32:02.034Z,12.75
2019-05-30T07:33:05.480Z,11.00
2019-05-30T07:34:08.331Z,10.75
2019-05-30T07:35:12.144Z,11.50
2019-05-30T07:36:18.003Z,11.25
2019-05-30T07:37:21.483Z,11.00
2019-05-30T07:38:28.384Z,13.00
2019-05-30T07:39:35.064Z,12.25
2019-05-30T07:40:36.309Z,13.00
2019-05-30T07:41:39.796Z,11.00
2019-05-30T07:42:42.858Z,13.00
2019-05-30T07:43:49.218Z,11.25
2019-05-30T07:44:50.783Z,10.25
2019-05-30T07:45:58.257Z,10.75
2019-05-30T07:46:58.695Z,10.25
2019-05-30T07:48:05.172Z,13.00
2019-05-30T07:49:12.449Z,10.00
2019-05-30T07:50:17.105Z,13.25
2019-05-30T07:51:19.967Z,11.00
2019-05-30T07:52:23.781Z,10.00
2019-05-30T07:53:28.638Z,10.50
2019-05-30T07:54:39.342Z,11.00
2019-05-30T07:55:45.217Z,10.00
2019-05-30T07:56:49.047Z,10.75
2019-05-30T07:57:52.358Z,10.75
2019-05-30T07:58:55.734Z,10.00
2019-05-30T08:00:06.275Z,11.00
2019-05-30T08:01:09.758Z,10.00
2019-05-30T08:02:15.321Z,9.00
2019-05-30T08:03:18.718Z,10.00
2019-05-30T08:04:24.587Z,11.00
2019-05-30T08:05:32.705Z,8.00
2019-05-30T08:06:37.838Z,10.75
2019-05-30T08:07:41.388Z,10.25
2019-05-30T08:08:44.431Z,10.25
2019-05-30T08:09:47.931Z,10.50
2019-05-30T08:11:08.327Z,8.00
2019-05-30T08:11:59.584Z,10.25
2019-05-30T08:13:03.098Z,10.00
2019-05-30T08:14:09.617Z,10.00
2019-05-30T08:15:24.851Z,10.25
2019-05-30T08:16:25.361Z,8.00
2019-05-30T08:17:29.500Z,9.50
2019-05-30T08:18:33.726Z,8.00
2019-05-30T08:19:40.230Z,10.00
2019-05-30T08:20:44.154Z,10.00
2019-05-30T08:21:47.336Z,9.00
2019-05-30T08:22:51.020Z,8.00
2019-05-30T08:23:53.912Z,9.00
2019-05-30T08:24:57.314Z,9.75
2019-05-30T08:26:00.617Z,9.00
2019-05-30T08:27:05.669Z,9.75
2019-05-30T08:28:10.160Z,10.75
2019-05-30T08:29:17.107Z,8.00
2019-05-30T08:30:19.895Z,8.50
2019-05-30T08:31:24.571Z,7.75
2019-05-30T08:32:28.366Z,9.75
2019-05-30T08:33:35.580Z,10.50
2019-05-30T08:34:38.855Z,9.75
2019-05-30T08:35:49.503Z,9.00
2019-05-30T08:36:47.581Z,10.00
2019-05-30T08:37:52.574Z,8.00
2019-05-30T08:38:56.574Z,10.00
2019-05-30T08:39:59.894Z,8.50
2019-05-30T08:41:06.838Z,10.25
2019-05-30T08:42:10.483Z,8.25
2019-05-30T08:43:13.250Z,8.00
2019-05-30T08:44:16.549Z,7.50
2019-05-30T08:45:19.805Z,8.00
2019-05-30T08:46:28.111Z,8.50
2019-05-30T08:47:33.953Z,7.25
2019-05-30T08:48:40.945Z,7.50
2019-05-30T08:49:43.850Z,8.00
2019-05-30T08:50:47.314Z,9.00
2019-05-30T08:52:13.311Z,8.00
2019-05-30T08:53:23.882Z,7.75
2019-05-30T08:54:30.298Z,7.50
2019-05-30T08:55:34.345Z,7.50
2019-05-30T08:56:41.438Z,7.75
2019-05-30T08:58:05.211Z,5.00
2019-05-30T08:59:08.532Z,8.00
2019-05-30T09:00:18.249Z,7.00
2019-05-30T09:01:22.155Z,7.00
2019-05-30T09:02:25.162Z,7.50
2019-05-30T09:03:28.408Z,7.00
2019-05-30T09:04:31.501Z,7.00
2019-05-30T09:05:35.891Z,8.50
2019-05-30T09:06:42.119Z,5.50
2019-05-30T09:07:46.358Z,7.00
2019-05-30T09:08:52.036Z,5.00
2019-05-30T09:09:55.272Z,7.00
2019-05-30T09:10:59.590Z,7.00
2019-05-30T09:12:11.299Z,7.00
2019-05-30T09:13:14.208Z,7.00
2019-05-30T09:14:19.083Z,10.25
2019-05-30T09:15:26.081Z,7.25
2019-05-30T09:16:32.759Z,5.00
2019-05-30T09:17:36.017Z,5.50
2019-05-30T09:18:40.327Z,7.00
2019-05-30T09:19:48.436Z,6.50
2019-05-30T09:20:52.043Z,4.25
2019-05-30T09:21:56.706Z,4.00
2019-05-30T09:23:03.262Z,5.00
2019-05-30T09:24:06.601Z,5.00
2019-05-30T09:25:10.081Z,3.00
2019-05-30T09:26:15.177Z,5.00
2019-05-30T09:27:19.089Z,3.00
2019-05-30T09:28:21.980Z,4.75
2019-05-30T09:29:27.347Z,5.00
2019-05-30T09:30:33.299Z,4.00
2019-05-30T09:31:38.108Z,4.00
2019-05-30T09:32:43.199Z,6.50
2019-05-30T09:33:46.898Z,4.75
2019-05-30T09:34:49.631Z,5.00
2019-05-30T09:35:53.068Z,5.00
2019-05-30T09:36:56.729Z,4.00
2019-05-30T09:38:01.655Z,4.75
2019-05-30T09:39:05.278Z,4.00
2019-05-30T09:40:08.653Z,5.00
2019-05-30T09:41:11.368Z,4.25
2019-05-30T09:42:15.131Z,4.00
2019-05-30T09:43:18.072Z,5.50
2019-05-30T09:44:21.966Z,4.00
2019-05-30T09:45:25.490Z,4.00
2019-05-30T09:46:28.715Z,4.00
2019-05-30T09:47:31.881Z,4.00
2019-05-30T09:48:35.879Z,5.00
2019-05-30T09:49:38.527Z,4.00
2019-05-30T09:50:45.225Z,5.00
2019-05-30T09:51:48.996Z,4.25
2019-05-30T09:52:53.793Z,4.50
2019-05-30T09:54:00.297Z,4.25
2019-05-30T09:55:03.792Z,5.00
2019-05-30T09:56:09.086Z,4.00
2019-05-30T09:57:12.500Z,5.00
2019-05-30T09:58:15.390Z,5.00
2019-05-30T09:59:25.367Z,4.25
2019-05-30T10:00:28.495Z,5.00
2019-05-30T10:01:31.966Z,4.00
2019-05-30T10:02:34.636Z,5.00
2019-05-30T10:03:37.955Z,4.00
2019-05-30T10:04:42.086Z,4.00
2019-05-30T10:05:47.018Z,4.25
2019-05-30T10:06:50.498Z,4.00
2019-05-30T10:07:53.781Z,4.00
2019-05-30T10:08:57.753Z,4.00
2019-05-30T10:10:01.071Z,3.00
2019-05-30T10:11:05.390Z,3.50
2019-05-30T10:12:10.777Z,4.75
2019-05-30T10:13:13.886Z,5.00
2019-05-30T10:14:19.192Z,4.00
2019-05-30T10:15:22.087Z,4.25
2019-05-30T10:16:25.739Z,4.00
2019-05-30T10:17:31.301Z,6.00
2019-05-30T10:18:34.534Z,4.00
2019-05-30T10:19:37.793Z,4.25
2019-05-30T10:21:01.309Z,4.00
2019-05-30T10:21:48.898Z,4.00
2019-05-30T10:22:53.745Z,3.50
2019-05-30T10:23:57.622Z,4.00
2019-05-30T10:25:02.196Z,3.00
2019-05-30T10:26:08.135Z,4.75
2019-05-30T10:27:11.621Z,4.00
2019-05-30T10:28:14.907Z,4.00
2019-05-30T10:29:18.137Z,4.25
2019-05-30T10:42:53.337Z,4.50
2019-05-30T10:43:58.924Z,5.00
2019-05-30T10:45:01.749Z,4.75
2019-05-30T10:46:05.175Z,5.00
2019-05-30T10:47:08.636Z,5.00
2019-05-30T10:48:13.782Z,5.00
2019-05-30T10:49:16.540Z,5.00
2019-05-30T10:50:19.975Z,4.00
2019-05-30T10:51:22.764Z,4.25
2019-05-30T10:52:26.142Z,4.25
2019-05-30T10:53:29.323Z,4.50
2019-05-30T10:54:34.699Z,5.00
2019-05-30T10:55:37.413Z,4.00
2019-05-30T10:56:40.762Z,5.00
2019-05-30T10:57:45.209Z,4.00
2019-05-30T10:58:52.818Z,5.00
2019-05-30T10:59:57.769Z,5.00
2019-05-30T11:01:03.316Z,4.00
2019-05-30T11:02:26.213Z,4.75
2019-05-30T11:03:34.912Z,4.25
2019-05-30T11:04:38.090Z,5.00
2019-05-30T11:05:43.292Z,5.50
2019-05-30T11:07:06.872Z,4.00
2019-05-30T11:08:02.118Z,7.00
2019-05-30T11:08:58.068Z,5.00
2019-05-30T11:10:01.432Z,5.00
2019-05-30T11:11:13.241Z,6.00
2019-05-30T11:12:17.238Z,6.00
2019-05-30T11:13:22.826Z,7.00
2019-05-30T11:14:43.859Z,5.00
2019-05-30T11:15:47.089Z,5.00
2019-05-30T11:16:53.754Z,5.00
2019-05-30T11:17:58.580Z,4.00
2019-05-30T11:19:07.381Z,5.00
2019-05-30T11:20:11.857Z,7.00
2019-05-30T11:21:15.719Z,7.00
2019-05-30T11:22:18.380Z,5.00
2019-05-30T11:23:21.871Z,5.00
2019-05-30T11:24:31.977Z,4.75
2019-05-30T11:25:35.427Z,5.00
2019-05-30T11:26:40.700Z,5.50
2019-05-30T11:27:44.459Z,4.75
2019-05-30T11:28:48.439Z,4.25
2019-05-30T11:29:54.743Z,6.50
2019-05-30T11:30:56.866Z,5.00
2019-05-30T11:32:00.893Z,5.00
2019-05-30T11:33:03.761Z,7.00
2019-05-30T11:34:07.541Z,5.50
2019-05-30T11:35:16.206Z,5.00
2019-05-30T11:36:19.604Z,5.00
2019-05-30T11:37:24.141Z,7.00
2019-05-30T11:38:27.704Z,4.75
2019-05-30T11:39:30.444Z,5.00
2019-05-30T11:40:35.413Z,4.25
2019-05-30T11:41:38.075Z,4.00
2019-05-30T11:42:43.900Z,4.75
2019-05-30T11:43:46.609Z,5.50
2019-05-30T11:44:49.869Z,5.00
2019-05-30T11:45:53.562Z,4.50
2019-05-30T11:46:57.772Z,4.00
2019-05-30T11:48:00.488Z,5.00
2019-05-30T11:49:05.335Z,5.00
2019-05-30T11:50:08.688Z,5.50
2019-05-30T11:51:12.091Z,4.25
2019-05-30T11:52:19.962Z,4.25
2019-05-30T11:53:25.829Z,4.75
2019-05-30T11:54:28.746Z,5.00
2019-05-30T11:55:33.400Z,5.00
2019-05-30T11:56:36.375Z,4.00
2019-05-30T11:57:43.046Z,4.25
2019-05-30T11:58:49.848Z,5.00
2019-05-30T11:59:56.278Z,4.75
2019-05-30T12:00:59.042Z,6.75
2019-05-30T12:02:02.740Z,5.00
2019-05-30T12:03:05.392Z,6.25
2019-05-30T12:04:09.084Z,5.25
2019-05-30T12:05:15.550Z,5.00
2019-05-30T12:06:19.130Z,4.25
2019-05-30T12:07:35.837Z,5.00
2019-05-30T12:08:31.324Z,4.75
2019-05-30T12:09:35.390Z,5.00
2019-05-30T12:10:38.786Z,6.00
2019-05-30T12:11:43.272Z,5.00
2019-05-30T12:12:48.701Z,5.50
2019-05-30T12:13:53.362Z,5.25
2019-05-30T12:14:57.372Z,6.00
2019-05-30T12:16:01.672Z,5.00
2019-05-30T12:17:05.133Z,6.00
2019-05-30T12:18:15.629Z,5.25
2019-05-30T12:19:18.950Z,4.50
2019-05-30T12:20:22.012Z,6.50
2019-05-30T12:21:25.332Z,5.00
2019-05-30T12:22:28.255Z,6.00
2019-05-30T12:23:31.561Z,6.00
2019-05-30T12:24:34.682Z,6.00
2019-05-30T12:25:38.058Z,6.00
2019-05-30T12:26:41.011Z,5.00
2019-05-30T12:27:44.267Z,6.00
2019-05-30T12:28:49.158Z,4.50
2019-05-30T12:29:56.637Z,5.75
2019-05-30T12:31:04.442Z,5.00
2019-05-30T12:32:06.228Z,5.25
2019-05-30T12:33:09.052Z,5.00
2019-05-30T12:34:12.703Z,6.00
2019-05-30T12:35:18.239Z,6.00
2019-05-30T12:36:22.467Z,5.00
2019-05-30T12:37:25.985Z,5.25
2019-05-30T12:38:29.412Z,5.00
2019-05-30T12:39:34.230Z,5.00
2019-05-30T12:40:37.729Z,5.75
2019-05-30T12:41:42.337Z,5.25
2019-05-30T12:42:45.724Z,5.75
2019-05-30T12:43:48.422Z,6.00
2019-05-30T12:44:52.949Z,7.00
2019-05-30T12:45:56.938Z,5.00
2019-05-30T12:47:01.325Z,6.00
2019-05-30T12:48:05.187Z,5.25
2019-05-30T12:49:08.911Z,6.00
2019-05-30T12:50:16.688Z,5.00
2019-05-30T12:51:20.418Z,5.75
2019-05-30T12:52:23.331Z,6.00
2019-05-30T12:53:30.039Z,7.50
2019-05-30T12:54:32.929Z,6.00
2019-05-30T12:55:39.037Z,5.50
2019-05-30T12:56:42.283Z,6.00
2019-05-30T12:57:45.862Z,5.00
2019-05-30T12:58:50.685Z,5.50
2019-05-30T12:59:56.790Z,6.00
2019-05-30T13:01:02.983Z,6.00
2019-05-30T13:02:07.300Z,6.00
2019-05-30T13:05:03.642Z,7.00
2019-05-30T13:06:10.624Z,5.50
2019-05-30T13:07:19.414Z,6.75
2019-05-30T13:08:22.900Z,8.00
2019-05-30T13:09:29.380Z,8.00
2019-05-30T13:10:36.921Z,6.00
2019-05-30T13:11:40.253Z,7.50
2019-05-30T13:12:43.948Z,6.00
2019-05-30T13:13:48.989Z,7.25
2019-05-30T13:14:53.067Z,8.25
2019-05-30T13:15:56.552Z,6.00
2019-05-30T13:16:59.919Z,5.50
2019-05-30T13:18:07.072Z,7.00
2019-05-30T13:19:12.811Z,6.00
2019-05-30T13:20:18.093Z,8.00
2019-05-30T13:21:23.385Z,8.00
2019-05-30T13:22:28.174Z,5.00
2019-05-30T13:23:33.390Z,8.00
2019-05-30T13:24:40.605Z,7.50
2019-05-30T13:25:45.775Z,6.50
2019-05-30T13:26:52.159Z,7.50
2019-05-30T13:27:55.798Z,8.75
2019-05-30T13:29:00.303Z,6.00
2019-05-30T13:30:04.394Z,6.00
2019-05-30T13:31:07.375Z,9.25
2019-05-30T13:32:11.165Z,8.00
2019-05-30T13:33:13.881Z,8.00
2019-05-30T13:34:18.391Z,7.75
2019-05-30T13:35:21.434Z,6.00
2019-05-30T13:36:26.126Z,7.75
2019-05-30T13:37:31.964Z,6.00
2019-05-30T13:38:35.715Z,7.75
2019-05-30T13:39:38.698Z,6.00
2019-05-30T13:40:43.975Z,7.75
2019-05-30T13:41:46.763Z,6.00
2019-05-30T13:42:52.518Z,7.75
2019-05-30T13:44:03.332Z,7.50
2019-05-30T13:45:06.053Z,8.00
2019-05-30T13:46:08.830Z,6.00
2019-05-30T13:47:12.087Z,8.00
2019-05-30T13:48:16.570Z,6.00
2019-05-30T13:49:20.295Z,7.50
2019-05-30T13:50:25.239Z,7.00
2019-05-30T13:52:41.814Z,6.00
2019-05-30T13:53:53.685Z,5.75
2019-05-30T13:55:03.543Z,6.00
2019-05-30T13:56:10.082Z,7.50
2019-05-30T13:57:22.951Z,7.00
2019-05-30T13:58:26.389Z,6.00
2019-05-30T13:59:29.102Z,9.00
2019-05-30T14:00:32.416Z,8.00
2019-05-30T14:01:37.766Z,10.00
2019-05-30T14:02:41.178Z,7.50
2019-05-30T14:03:44.214Z,8.00
2019-05-30T14:04:54.060Z,8.00
2019-05-30T14:06:00.595Z,6.00
2019-05-30T14:07:06.388Z,8.00
2019-05-30T14:08:16.424Z,6.00
2019-05-30T14:09:16.598Z,8.50
2019-05-30T14:10:19.293Z,8.50
2019-05-30T14:11:22.544Z,8.00
2019-05-30T14:12:25.312Z,9.00
2019-05-30T14:13:31.134Z,6.00
2019-05-30T14:14:37.303Z,8.00
2019-05-30T14:15:40.732Z,6.50
2019-05-30T14:16:43.612Z,8.25
2019-05-30T14:17:47.117Z,8.00
2019-05-30T14:18:50.389Z,8.00
2019-05-30T14:19:56.111Z,8.00
2019-05-30T14:21:01.911Z,9.00
2019-05-30T14:22:05.320Z,8.00
2019-05-30T14:23:11.887Z,6.00
2019-05-30T14:24:16.298Z,6.00
2019-05-30T14:25:19.194Z,8.00
2019-05-30T14:26:23.191Z,6.00
2019-05-30T14:27:26.267Z,6.50
2019-05-30T14:28:29.644Z,8.00
2019-05-30T14:29:32.375Z,8.00
2019-05-30T14:30:38.860Z,9.00
2019-05-30T14:31:41.690Z,8.00
2019-05-30T14:32:46.448Z,6.00